createdAt,value
2022-08-18T00:02:34.350Z,17.54
2022-08-18T00:07:38.451Z,17.44
2022-08-18T00:12:42.579Z,17.35
2022-08-18T00:17:46.761Z,17.30
2022-08-18T00:22:51.017Z,17.31
2022-08-18T00:27:55.061Z,17.26
2022-08-18T00:32:59.247Z,17.21
2022-08-18T00:38:03.377Z,17.08
2022-08-18T00:43:07.551Z,17.03
2022-08-18T00:48:11.987Z,16.99
2022-08-18T00:53:15.861Z,16.95
2022-08-18T00:58:20.017Z,16.89
2022-08-18T01:03:24.929Z,16.91
2022-08-18T01:08:29.119Z,16.85
2022-08-18T01:13:32.505Z,16.84
2022-08-18T01:18:36.675Z,16.79
2022-08-18T01:23:40.832Z,16.65
2022-08-18T01:28:44.971Z,16.62
2022-08-18T01:33:49.140Z,16.60
2022-08-18T01:38:53.294Z,16.49
2022-08-18T01:43:57.484Z,16.44
2022-08-18T01:49:01.635Z,16.37
2022-08-18T01:54:03.915Z,16.36
2022-08-18T01:59:08.064Z,16.45
2022-08-18T02:04:33.899Z,16.57
2022-08-18T02:09:16.381Z,16.50
2022-08-18T02:14:20.556Z,16.49
2022-08-18T02:19:24.670Z,16.54
2022-08-18T02:24:28.853Z,16.55
2022-08-18T02:29:33.027Z,16.56
2022-08-18T02:34:37.162Z,16.61
2022-08-18T02:39:41.428Z,16.62
2022-08-18T02:44:45.489Z,16.63
2022-08-18T02:49:49.644Z,16.63
2022-08-18T02:54:53.795Z,16.73
2022-08-18T02:59:57.992Z,16.90
2022-08-18T03:05:02.173Z,16.99
2022-08-18T03:10:32.825Z,16.98
2022-08-18T03:15:10.474Z,17.16
2022-08-18T03:20:14.609Z,17.33
2022-08-18T03:25:18.748Z,17.44
2022-08-18T03:30:22.958Z,17.49
2022-08-18T03:35:27.063Z,17.61
2022-08-18T03:40:31.222Z,17.67
2022-08-18T03:45:35.382Z,17.72
2022-08-18T03:50:39.558Z,17.75
2022-08-18T03:55:43.705Z,17.79
2022-08-18T04:00:47.871Z,17.83
2022-08-18T04:05:52.047Z,17.89
2022-08-18T04:10:56.206Z,17.90
2022-08-18T04:16:00.355Z,17.89
2022-08-18T04:21:04.513Z,17.90
2022-08-18T04:26:08.674Z,17.88
2022-08-18T04:31:12.837Z,17.91
2022-08-18T04:36:20.575Z,17.96
2022-08-18T04:41:21.177Z,17.94
2022-08-18T04:46:25.306Z,17.96
2022-08-18T04:52:39.393Z,17.98
2022-08-18T04:56:33.667Z,18.00
2022-08-18T05:01:37.873Z,17.95
2022-08-18T05:06:41.941Z,17.94
2022-08-18T05:11:46.150Z,17.93
2022-08-18T05:16:50.260Z,17.89
2022-08-18T05:21:57.625Z,17.90
2022-08-18T05:26:58.595Z,17.90
2022-08-18T05:32:02.747Z,17.90
2022-08-18T05:37:06.948Z,17.85
2022-08-18T05:42:11.097Z,17.82
2022-08-18T05:47:15.231Z,17.79
2022-08-18T05:52:19.383Z,17.78
2022-08-18T05:57:23.540Z,17.78
2022-08-18T06:02:27.701Z,17.77
2022-08-18T06:07:33.651Z,17.79
2022-08-18T06:12:37.738Z,17.83
2022-08-18T06:17:40.191Z,17.89
2022-08-18T06:22:53.304Z,17.93
2022-08-18T06:27:48.600Z,18.01
2022-08-18T06:32:52.654Z,18.04
2022-08-18T06:37:56.849Z,18.13
2022-08-18T06:43:02.135Z,18.26
2022-08-18T06:48:05.133Z,18.35
2022-08-18T06:53:26.946Z,18.39
2022-08-18T06:58:13.637Z,18.43
2022-08-18T07:03:17.656Z,18.42
2022-08-18T07:08:21.945Z,18.42
2022-08-18T07:13:25.976Z,18.45
2022-08-18T07:18:30.152Z,18.58
2022-08-18T07:23:32.383Z,18.67
2022-08-18T07:28:36.540Z,18.80
2022-08-18T07:33:40.714Z,18.94
2022-08-18T07:38:44.862Z,19.03
2022-08-18T07:43:48.989Z,19.05
2022-08-18T07:48:53.141Z,18.95
2022-08-18T07:53:56.256Z,19.05
2022-08-18T07:58:59.598Z,18.98
2022-08-18T08:04:03.760Z,19.03
2022-08-18T08:09:07.900Z,19.13
2022-08-18T08:14:12.046Z,19.27
2022-08-18T08:19:16.239Z,19.40
2022-08-18T08:24:20.390Z,19.45
2022-08-18T08:29:24.547Z,19.55
2022-08-18T08:34:30.717Z,19.61
2022-08-18T08:39:32.927Z,19.86
2022-08-18T08:44:57.921Z,20.26
2022-08-18T08:49:41.218Z,20.60
2022-08-18T08:54:45.378Z,20.99
2022-08-18T08:59:49.513Z,21.31
2022-08-18T09:05:07.545Z,21.60
2022-08-18T09:09:57.830Z,21.82
2022-08-18T09:15:01.983Z,21.72
2022-08-18T09:20:06.132Z,21.66
2022-08-18T09:25:10.296Z,21.78
2022-08-18T09:30:14.460Z,21.87
2022-08-18T09:35:18.599Z,22.14
2022-08-18T09:45:31.062Z,22.30
2022-08-18T09:50:31.101Z,22.43
2022-08-18T09:55:35.273Z,22.47
2022-08-18T10:00:39.410Z,22.53
2022-08-18T10:05:43.554Z,22.46
2022-08-18T10:11:00.177Z,22.57
2022-08-18T10:15:51.905Z,22.59
2022-08-18T10:20:56.045Z,22.57
2022-08-18T10:26:04.393Z,22.54
2022-08-18T10:36:11.028Z,22.63
2022-08-18T10:41:15.551Z,22.69
2022-08-18T10:51:21.359Z,23.35
2022-08-18T10:56:26.893Z,23.65
2022-08-18T11:06:33.479Z,24.03
2022-08-18T11:11:39.834Z,24.05
2022-08-18T11:16:41.809Z,23.91
2022-08-18T11:21:45.938Z,24.15
2022-08-18T11:26:52.517Z,24.52
2022-08-18T11:31:54.293Z,24.28
2022-08-18T11:36:58.413Z,24.05
2022-08-18T11:42:02.711Z,23.84
2022-08-18T11:47:06.777Z,23.42
2022-08-18T11:52:10.948Z,23.43
2022-08-18T11:57:15.044Z,23.43
2022-08-18T12:02:19.244Z,23.52
2022-08-18T12:07:23.377Z,23.65
2022-08-18T12:12:28.147Z,23.63
2022-08-18T12:17:31.709Z,23.76
2022-08-18T12:22:35.862Z,23.80
2022-08-18T12:27:40.018Z,23.96
2022-08-18T12:32:50.775Z,23.88
2022-08-18T12:37:59.928Z,23.88
2022-08-18T12:42:52.663Z,24.09
2022-08-18T12:47:56.885Z,24.26
2022-08-18T12:53:00.786Z,24.58
2022-08-18T12:58:04.986Z,24.82
2022-08-18T13:03:09.107Z,24.73
2022-08-18T13:08:13.273Z,24.87
2022-08-18T13:13:17.429Z,25.18
2022-08-18T13:18:21.594Z,25.64
2022-08-18T13:23:25.094Z,25.85
2022-08-18T13:28:30.217Z,25.97
2022-08-18T13:33:35.241Z,26.14
2022-08-18T13:38:36.328Z,26.39
2022-08-18T13:43:40.658Z,26.46
2022-08-18T13:48:44.664Z,26.81
2022-08-18T13:53:59.051Z,26.60
2022-08-18T13:58:53.715Z,26.30
2022-08-18T14:03:57.166Z,26.07
2022-08-18T14:09:01.325Z,26.10
2022-08-18T14:14:05.477Z,26.31
2022-08-18T14:19:10.409Z,26.46
2022-08-18T14:24:14.204Z,26.13
2022-08-18T14:29:17.919Z,25.71
2022-08-18T14:34:22.069Z,25.48
2022-08-18T14:39:26.331Z,25.75
2022-08-18T14:44:32.590Z,25.78
2022-08-18T14:49:34.591Z,25.74
2022-08-18T14:54:38.708Z,25.63
2022-08-18T14:59:42.907Z,25.66
2022-08-18T15:04:53.163Z,26.17
2022-08-18T15:09:51.229Z,26.43
2022-08-18T15:14:55.754Z,26.65
2022-08-18T15:20:01.082Z,26.80
2022-08-18T15:25:03.669Z,26.74
2022-08-18T15:30:07.829Z,26.76
2022-08-18T15:35:12.040Z,26.78
2022-08-18T15:40:21.963Z,26.42
2022-08-18T15:45:20.336Z,26.49
2022-08-18T15:50:25.826Z,26.87
2022-08-18T15:55:28.594Z,27.25
2022-08-18T16:00:32.766Z,27.34
2022-08-18T16:05:36.953Z,27.68
2022-08-18T16:10:41.100Z,28.73
2022-08-18T16:15:45.334Z,28.52
2022-08-18T16:20:50.629Z,28.22
2022-08-18T16:25:53.580Z,28.30
2022-08-18T16:30:57.722Z,28.46
2022-08-18T16:36:01.919Z,27.86
2022-08-18T16:41:06.295Z,27.05
2022-08-18T16:46:10.250Z,26.49
2022-08-18T16:51:14.395Z,26.77
2022-08-18T16:56:18.525Z,26.92
2022-08-18T17:01:22.723Z,26.31
2022-08-18T17:06:26.873Z,25.81
2022-08-18T17:11:31.013Z,25.80
2022-08-18T17:16:35.181Z,25.70
2022-08-18T17:21:39.323Z,25.69
2022-08-18T17:26:43.501Z,25.47
2022-08-18T17:31:47.649Z,25.07
2022-08-18T17:36:52.795Z,24.80
2022-08-18T17:41:55.984Z,24.61
2022-08-18T17:47:00.168Z,24.41
2022-08-18T17:52:04.286Z,24.20
2022-08-18T17:57:08.470Z,24.05
2022-08-18T18:02:16.658Z,23.92
2022-08-18T18:07:16.876Z,23.93
2022-08-18T18:12:20.934Z,23.82
2022-08-18T18:17:25.109Z,23.70
2022-08-18T18:22:29.220Z,23.48
2022-08-18T18:27:33.430Z,23.18
2022-08-18T18:32:37.537Z,23.04
2022-08-18T18:37:41.735Z,22.80
2022-08-18T18:42:45.931Z,22.54
2022-08-18T18:47:50.056Z,22.15
2022-08-18T18:52:52.481Z,21.88
2022-08-18T18:57:56.468Z,21.70
2022-08-18T19:03:00.628Z,21.54
2022-08-18T19:08:04.822Z,21.43
2022-08-18T19:13:08.949Z,21.24
2022-08-18T19:18:13.123Z,21.08
2022-08-18T19:23:34.215Z,20.94
2022-08-18T19:28:21.418Z,20.87
2022-08-18T19:33:26.151Z,20.87
2022-08-18T19:38:29.738Z,20.85
2022-08-18T19:43:33.898Z,20.78
2022-08-18T19:48:38.044Z,20.54
2022-08-18T19:53:42.221Z,20.31
2022-08-18T19:58:58.862Z,20.21
2022-08-18T20:03:50.539Z,19.98
2022-08-18T20:08:54.702Z,19.82
2022-08-18T20:13:58.858Z,19.67
2022-08-18T20:19:15.985Z,19.61
2022-08-18T20:24:07.173Z,19.56
2022-08-18T20:29:11.339Z,19.44
2022-08-18T20:34:15.501Z,19.35
2022-08-18T20:39:19.660Z,19.30
2022-08-18T20:44:29.429Z,19.28
2022-08-18T20:49:27.991Z,19.17
2022-08-18T20:54:32.115Z,19.14
2022-08-18T20:59:36.277Z,19.00
2022-08-18T21:04:43.045Z,18.86
2022-08-18T21:09:44.586Z,18.77
2022-08-18T21:19:52.921Z,18.62
2022-08-18T21:24:57.073Z,18.56
2022-08-18T21:30:01.255Z,18.45
2022-08-18T21:35:05.446Z,18.26
2022-08-18T21:40:09.580Z,18.17
2022-08-18T21:45:13.748Z,18.13
2022-08-18T21:50:17.901Z,18.11
2022-08-18T21:55:22.021Z,18.06
2022-08-18T22:00:26.240Z,17.95
2022-08-18T22:05:30.342Z,17.80
2022-08-18T22:10:34.532Z,17.76
2022-08-18T22:15:38.663Z,17.71
2022-08-18T22:20:42.823Z,17.72
2022-08-18T22:25:47.010Z,17.65
2022-08-18T22:30:51.145Z,17.53
2022-08-18T22:35:55.329Z,17.52
2022-08-18T22:40:59.470Z,17.43
2022-08-18T22:46:03.613Z,17.34
2022-08-18T22:51:07.810Z,17.26
2022-08-18T22:56:11.935Z,17.20
2022-08-18T23:01:16.100Z,17.17
2022-08-18T23:06:20.269Z,17.11
2022-08-18T23:11:24.421Z,17.01
2022-08-18T23:16:31.256Z,16.92
2022-08-18T23:21:33.795Z,16.88
2022-08-18T23:26:36.916Z,16.87
2022-08-18T23:31:41.042Z,16.83
2022-08-18T23:36:45.729Z,16.73
2022-08-18T23:41:49.407Z,16.64
2022-08-18T23:46:53.545Z,16.59
2022-08-18T23:51:57.732Z,16.63
2022-08-18T23:57:01.859Z,16.55
